sensor_id;sensor_type;location;lat;lon;timestamp;temperature;humidity
48206;DHT22;33995;48.202;16.260;2023-10-19T00:00:42;8.80;99.90
48206;DHT22;33995;48.202;16.260;2023-10-19T00:03:12;8.90;99.90
48206;DHT22;33995;48.202;16.260;2023-10-19T00:05:39;8.90;99.90
48206;DHT22;33995;48.202;16.260;2023-10-19T00:08:08;8.80;99.90
48206;DHT22;33995;48.202;16.260;2023-10-19T00:10:53;8.80;99.90
48206;DHT22;33995;48.202;16.260;2023-10-19T00:13:29;8.80;99.90
48206;DHT22;33995;48.202;16.260;2023-10-19T00:15:57;8.80;99.90
48206;DHT22;33995;48.202;16.260;2023-10-19T00:18:30;8.80;99.90
48206;DHT22;33995;48.202;16.260;2023-10-19T00:21:00;8.80;99.90
48206;DHT22;33995;48.202;16.260;2023-10-19T00:24:00;8.80;99.90
48206;DHT22;33995;48.202;16.260;2023-10-19T00:26:32;8.80;99.90
48206;DHT22;33995;48.202;16.260;2023-10-19T00:29:02;8.80;99.90
48206;DHT22;33995;48.202;16.260;2023-10-19T00:31:45;8.90;99.90
48206;DHT22;33995;48.202;16.260;2023-10-19T00:34:12;8.90;99.90
48206;DHT22;33995;48.202;16.260;2023-10-19T00:36:49;9.00;99.90
48206;DHT22;33995;48.202;16.260;2023-10-19T00:39:17;9.00;99.90
48206;DHT22;33995;48.202;16.260;2023-10-19T00:41:54;9.00;99.90
48206;DHT22;33995;48.202;16.260;2023-10-19T00:44:24;9.00;99.90
48206;DHT22;33995;48.202;16.260;2023-10-19T00:47:09;9.10;99.90
48206;DHT22;33995;48.202;16.260;2023-10-19T00:49:46;9.10;99.90
48206;DHT22;33995;48.202;16.260;2023-10-19T00:52:15;9.10;99.90
48206;DHT22;33995;48.202;16.260;2023-10-19T00:54:47;9.10;99.90
48206;DHT22;33995;48.202;16.260;2023-10-19T00:57:18;9.10;99.90
48206;DHT22;33995;48.202;16.260;2023-10-19T00:59:48;9.10;99.90
48206;DHT22;33995;48.202;16.260;2023-10-19T01:02:17;9.20;99.90
48206;DHT22;33995;48.202;16.260;2023-10-19T01:04:49;9.20;99.90
48206;DHT22;33995;48.202;16.260;2023-10-19T01:07:24;9.20;99.90
48206;DHT22;33995;48.202;16.260;2023-10-19T01:09:58;9.20;99.90
48206;DHT22;33995;48.202;16.260;2023-10-19T01:12:30;9.20;99.90
48206;DHT22;33995;48.202;16.260;2023-10-19T01:15:16;9.20;99.90
48206;DHT22;33995;48.202;16.260;2023-10-19T01:17:49;9.30;99.90
48206;DHT22;33995;48.202;16.260;2023-10-19T01:20:27;9.20;99.90
48206;DHT22;33995;48.202;16.260;2023-10-19T01:23:02;9.30;99.90
48206;DHT22;33995;48.202;16.260;2023-10-19T01:25:56;9.30;99.90
48206;DHT22;33995;48.202;16.260;2023-10-19T01:31:05;9.30;99.90
48206;DHT22;33995;48.202;16.260;2023-10-19T01:33:36;9.40;99.90
48206;DHT22;33995;48.202;16.260;2023-10-19T01:36:03;9.40;99.90
48206;DHT22;33995;48.202;16.260;2023-10-19T01:38:42;9.40;99.90
48206;DHT22;33995;48.202;16.260;2023-10-19T01:41:11;9.40;99.90
48206;DHT22;33995;48.202;16.260;2023-10-19T01:43:48;9.40;99.90
48206;DHT22;33995;48.202;16.260;2023-10-19T01:46:17;9.40;99.90
48206;DHT22;33995;48.202;16.260;2023-10-19T01:48:52;9.50;99.90
48206;DHT22;33995;48.202;16.260;2023-10-19T01:51:30;9.40;99.90
48206;DHT22;33995;48.202;16.260;2023-10-19T01:54:00;9.50;99.90
48206;DHT22;33995;48.202;16.260;2023-10-19T01:56:30;9.50;99.90
48206;DHT22;33995;48.202;16.260;2023-10-19T01:59:06;9.50;99.90
48206;DHT22;33995;48.202;16.260;2023-10-19T02:05:17;9.50;99.90
48206;DHT22;33995;48.202;16.260;2023-10-19T02:07:45;9.50;99.90
48206;DHT22;33995;48.202;16.260;2023-10-19T02:10:14;9.50;99.90
48206;DHT22;33995;48.202;16.260;2023-10-19T02:12:42;9.50;99.90
48206;DHT22;33995;48.202;16.260;2023-10-19T02:15:10;9.50;99.90
48206;DHT22;33995;48.202;16.260;2023-10-19T02:17:37;9.50;99.90
48206;DHT22;33995;48.202;16.260;2023-10-19T02:20:08;9.50;99.90
48206;DHT22;33995;48.202;16.260;2023-10-19T02:22:45;9.50;99.90
48206;DHT22;33995;48.202;16.260;2023-10-19T02:25:13;9.50;99.90
48206;DHT22;33995;48.202;16.260;2023-10-19T02:27:41;9.50;99.90
48206;DHT22;33995;48.202;16.260;2023-10-19T02:30:09;9.50;99.90
48206;DHT22;33995;48.202;16.260;2023-10-19T02:32:38;9.50;99.90
48206;DHT22;33995;48.202;16.260;2023-10-19T02:35:05;9.50;99.90
48206;DHT22;33995;48.202;16.260;2023-10-19T02:37:32;9.40;99.90
48206;DHT22;33995;48.202;16.260;2023-10-19T02:39:59;9.40;99.90
48206;DHT22;33995;48.202;16.260;2023-10-19T02:42:30;9.40;99.90
48206;DHT22;33995;48.202;16.260;2023-10-19T02:44:58;9.40;99.90
48206;DHT22;33995;48.202;16.260;2023-10-19T02:47:26;9.40;99.90
48206;DHT22;33995;48.202;16.260;2023-10-19T02:49:55;9.40;99.90
48206;DHT22;33995;48.202;16.260;2023-10-19T02:52:23;9.40;99.90
48206;DHT22;33995;48.202;16.260;2023-10-19T02:54:50;9.50;99.90
48206;DHT22;33995;48.202;16.260;2023-10-19T02:57:17;9.50;99.90
48206;DHT22;33995;48.202;16.260;2023-10-19T02:59:46;9.40;99.90
48206;DHT22;33995;48.202;16.260;2023-10-19T03:02:13;9.40;99.90
48206;DHT22;33995;48.202;16.260;2023-10-19T03:04:43;9.40;99.90
48206;DHT22;33995;48.202;16.260;2023-10-19T03:07:12;9.40;99.90
48206;DHT22;33995;48.202;16.260;2023-10-19T03:09:40;9.40;99.90
48206;DHT22;33995;48.202;16.260;2023-10-19T03:12:15;9.40;99.90
48206;DHT22;33995;48.202;16.260;2023-10-19T03:14:48;9.40;99.90
48206;DHT22;33995;48.202;16.260;2023-10-19T03:17:18;9.40;99.90
48206;DHT22;33995;48.202;16.260;2023-10-19T03:19:45;9.40;99.90
48206;DHT22;33995;48.202;16.260;2023-10-19T03:22:14;9.50;99.90
48206;DHT22;33995;48.202;16.260;2023-10-19T03:24:45;9.40;99.90
48206;DHT22;33995;48.202;16.260;2023-10-19T03:27:13;9.40;99.90
48206;DHT22;33995;48.202;16.260;2023-10-19T03:29:48;9.40;99.90
48206;DHT22;33995;48.202;16.260;2023-10-19T03:32:22;9.40;99.90
48206;DHT22;33995;48.202;16.260;2023-10-19T03:34:57;9.40;99.90
48206;DHT22;33995;48.202;16.260;2023-10-19T03:37:29;9.50;99.90
48206;DHT22;33995;48.202;16.260;2023-10-19T03:39:58;9.50;99.90
48206;DHT22;33995;48.202;16.260;2023-10-19T03:42:28;9.50;99.90
48206;DHT22;33995;48.202;16.260;2023-10-19T03:45:02;9.50;99.90
48206;DHT22;33995;48.202;16.260;2023-10-19T03:47:34;9.50;99.90
48206;DHT22;33995;48.202;16.260;2023-10-19T03:50:03;9.60;99.90
48206;DHT22;33995;48.202;16.260;2023-10-19T03:52:35;9.40;99.90
48206;DHT22;33995;48.202;16.260;2023-10-19T03:55:06;9.40;99.90
48206;DHT22;33995;48.202;16.260;2023-10-19T03:57:42;9.50;99.90
48206;DHT22;33995;48.202;16.260;2023-10-19T04:00:14;9.50;99.90
48206;DHT22;33995;48.202;16.260;2023-10-19T04:02:54;9.50;99.90
48206;DHT22;33995;48.202;16.260;2023-10-19T04:05:26;9.50;99.90
48206;DHT22;33995;48.202;16.260;2023-10-19T04:07:55;9.50;99.90
48206;DHT22;33995;48.202;16.260;2023-10-19T04:10:25;9.50;99.90
48206;DHT22;33995;48.202;16.260;2023-10-19T04:13:06;9.60;99.90
48206;DHT22;33995;48.202;16.260;2023-10-19T04:15:40;9.50;99.90
48206;DHT22;33995;48.202;16.260;2023-10-19T04:18:08;9.50;99.90
48206;DHT22;33995;48.202;16.260;2023-10-19T04:20:37;9.50;99.90
48206;DHT22;33995;48.202;16.260;2023-10-19T04:23:25;9.50;99.90
48206;DHT22;33995;48.202;16.260;2023-10-19T04:25:56;9.50;99.90
48206;DHT22;33995;48.202;16.260;2023-10-19T04:28:26;9.50;99.90
48206;DHT22;33995;48.202;16.260;2023-10-19T04:31:14;9.50;99.90
48206;DHT22;33995;48.202;16.260;2023-10-19T04:33:42;9.50;99.90
48206;DHT22;33995;48.202;16.260;2023-10-19T04:36:15;9.50;99.90
48206;DHT22;33995;48.202;16.260;2023-10-19T04:38:42;9.60;99.90
48206;DHT22;33995;48.202;16.260;2023-10-19T04:41:11;9.60;99.90
48206;DHT22;33995;48.202;16.260;2023-10-19T04:43:42;9.60;99.90
48206;DHT22;33995;48.202;16.260;2023-10-19T04:46:19;9.60;99.90
48206;DHT22;33995;48.202;16.260;2023-10-19T04:48:46;9.60;99.90
48206;DHT22;33995;48.202;16.260;2023-10-19T04:51:13;9.60;99.90
48206;DHT22;33995;48.202;16.260;2023-10-19T04:53:40;9.60;99.90
48206;DHT22;33995;48.202;16.260;2023-10-19T04:56:07;9.60;99.90
48206;DHT22;33995;48.202;16.260;2023-10-19T04:58:39;9.60;99.90
48206;DHT22;33995;48.202;16.260;2023-10-19T05:01:06;9.70;99.90
48206;DHT22;33995;48.202;16.260;2023-10-19T05:03:33;9.70;99.90
48206;DHT22;33995;48.202;16.260;2023-10-19T05:06:04;9.70;99.90
48206;DHT22;33995;48.202;16.260;2023-10-19T05:08:51;9.70;99.90
48206;DHT22;33995;48.202;16.260;2023-10-19T05:11:24;9.70;99.90
48206;DHT22;33995;48.202;16.260;2023-10-19T05:13:51;9.70;99.90
48206;DHT22;33995;48.202;16.260;2023-10-19T05:16:18;9.80;99.90
48206;DHT22;33995;48.202;16.260;2023-10-19T05:18:48;9.80;99.90
48206;DHT22;33995;48.202;16.260;2023-10-19T05:21:15;9.80;99.90
48206;DHT22;33995;48.202;16.260;2023-10-19T05:23:42;9.80;99.90
48206;DHT22;33995;48.202;16.260;2023-10-19T05:26:12;9.80;99.90
48206;DHT22;33995;48.202;16.260;2023-10-19T05:28:41;9.90;99.90
48206;DHT22;33995;48.202;16.260;2023-10-19T05:31:09;10.00;99.90
48206;DHT22;33995;48.202;16.260;2023-10-19T05:33:42;9.90;99.90
48206;DHT22;33995;48.202;16.260;2023-10-19T05:36:09;9.90;99.90
48206;DHT22;33995;48.202;16.260;2023-10-19T05:38:36;9.90;99.90
48206;DHT22;33995;48.202;16.260;2023-10-19T05:41:04;9.90;99.90
48206;DHT22;33995;48.202;16.260;2023-10-19T05:43:32;9.90;99.90
48206;DHT22;33995;48.202;16.260;2023-10-19T05:46:00;10.00;99.90
48206;DHT22;33995;48.202;16.260;2023-10-19T05:48:30;9.90;99.90
48206;DHT22;33995;48.202;16.260;2023-10-19T05:50:57;10.00;99.90
48206;DHT22;33995;48.202;16.260;2023-10-19T05:53:27;10.00;99.90
48206;DHT22;33995;48.202;16.260;2023-10-19T05:55:56;10.10;99.90
48206;DHT22;33995;48.202;16.260;2023-10-19T05:58:23;10.00;99.90
48206;DHT22;33995;48.202;16.260;2023-10-19T06:01:00;10.00;99.90
48206;DHT22;33995;48.202;16.260;2023-10-19T06:03:27;10.00;99.90
48206;DHT22;33995;48.202;16.260;2023-10-19T06:05:55;10.10;99.90
48206;DHT22;33995;48.202;16.260;2023-10-19T06:08:23;10.00;99.90
48206;DHT22;33995;48.202;16.260;2023-10-19T06:10:53;10.10;99.90
48206;DHT22;33995;48.202;16.260;2023-10-19T06:13:20;10.10;99.90
48206;DHT22;33995;48.202;16.260;2023-10-19T06:15:49;10.10;99.90
48206;DHT22;33995;48.202;16.260;2023-10-19T06:18:16;10.20;99.90
48206;DHT22;33995;48.202;16.260;2023-10-19T06:20:44;10.20;99.90
48206;DHT22;33995;48.202;16.260;2023-10-19T06:23:11;10.20;99.90
48206;DHT22;33995;48.202;16.260;2023-10-19T06:25:43;10.30;99.90
48206;DHT22;33995;48.202;16.260;2023-10-19T06:28:10;10.30;99.90
48206;DHT22;33995;48.202;16.260;2023-10-19T06:30:47;10.30;99.90
48206;DHT22;33995;48.202;16.260;2023-10-19T06:33:15;10.40;99.90
48206;DHT22;33995;48.202;16.260;2023-10-19T06:35:42;10.40;99.90
48206;DHT22;33995;48.202;16.260;2023-10-19T06:38:09;10.40;99.90
48206;DHT22;33995;48.202;16.260;2023-10-19T06:40:36;10.50;99.90
48206;DHT22;33995;48.202;16.260;2023-10-19T06:43:03;10.50;99.90
48206;DHT22;33995;48.202;16.260;2023-10-19T06:45:32;10.50;99.90
48206;DHT22;33995;48.202;16.260;2023-10-19T06:48:00;10.50;99.90
48206;DHT22;33995;48.202;16.260;2023-10-19T06:50:27;10.60;99.90
48206;DHT22;33995;48.202;16.260;2023-10-19T06:52:54;10.50;99.90
48206;DHT22;33995;48.202;16.260;2023-10-19T06:55:21;10.60;99.90
48206;DHT22;33995;48.202;16.260;2023-10-19T06:57:57;10.60;99.90
48206;DHT22;33995;48.202;16.260;2023-10-19T07:00:39;10.60;99.90
48206;DHT22;33995;48.202;16.260;2023-10-19T07:03:14;10.60;99.90
48206;DHT22;33995;48.202;16.260;2023-10-19T07:05:40;10.60;99.90
48206;DHT22;33995;48.202;16.260;2023-10-19T07:08:08;10.60;99.90
48206;DHT22;33995;48.202;16.260;2023-10-19T07:10:34;10.70;99.90
48206;DHT22;33995;48.202;16.260;2023-10-19T07:13:02;10.70;99.90
48206;DHT22;33995;48.202;16.260;2023-10-19T07:15:30;10.80;99.90
48206;DHT22;33995;48.202;16.260;2023-10-19T07:17:59;10.80;99.90
48206;DHT22;33995;48.202;16.260;2023-10-19T07:20:26;10.90;99.90
48206;DHT22;33995;48.202;16.260;2023-10-19T07:23:04;10.90;99.90
48206;DHT22;33995;48.202;16.260;2023-10-19T07:29:22;10.80;99.90
48206;DHT22;33995;48.202;16.260;2023-10-19T07:31:49;10.90;99.90
48206;DHT22;33995;48.202;16.260;2023-10-19T07:34:19;10.90;99.90
48206;DHT22;33995;48.202;16.260;2023-10-19T07:36:55;10.90;99.90
48206;DHT22;33995;48.202;16.260;2023-10-19T07:39:25;10.80;99.90
48206;DHT22;33995;48.202;16.260;2023-10-19T07:41:56;10.90;99.90
48206;DHT22;33995;48.202;16.260;2023-10-19T07:44:23;10.90;99.90
48206;DHT22;33995;48.202;16.260;2023-10-19T07:46:53;10.90;99.90
48206;DHT22;33995;48.202;16.260;2023-10-19T07:49:25;10.90;99.90
48206;DHT22;33995;48.202;16.260;2023-10-19T07:51:53;10.80;99.90
48206;DHT22;33995;48.202;16.260;2023-10-19T07:54:24;10.90;99.90
48206;DHT22;33995;48.202;16.260;2023-10-19T07:56:51;10.90;99.90
48206;DHT22;33995;48.202;16.260;2023-10-19T07:59:18;10.90;99.90
48206;DHT22;33995;48.202;16.260;2023-10-19T08:01:45;11.00;99.90
48206;DHT22;33995;48.202;16.260;2023-10-19T08:04:12;11.00;99.90
48206;DHT22;33995;48.202;16.260;2023-10-19T08:06:39;11.10;99.90
48206;DHT22;33995;48.202;16.260;2023-10-19T08:09:06;11.10;99.90
48206;DHT22;33995;48.202;16.260;2023-10-19T08:11:36;11.10;99.90
48206;DHT22;33995;48.202;16.260;2023-10-19T08:14:04;11.10;99.90
48206;DHT22;33995;48.202;16.260;2023-10-19T08:16:32;11.10;99.90
48206;DHT22;33995;48.202;16.260;2023-10-19T08:18:59;11.10;99.90
48206;DHT22;33995;48.202;16.260;2023-10-19T08:21:26;11.20;99.90
48206;DHT22;33995;48.202;16.260;2023-10-19T08:23:55;11.10;99.90
48206;DHT22;33995;48.202;16.260;2023-10-19T08:26:23;11.20;99.90
48206;DHT22;33995;48.202;16.260;2023-10-19T08:28:50;11.10;99.90
48206;DHT22;33995;48.202;16.260;2023-10-19T08:31:18;11.10;99.90
48206;DHT22;33995;48.202;16.260;2023-10-19T08:33:45;11.20;99.90
48206;DHT22;33995;48.202;16.260;2023-10-19T08:36:18;11.20;99.90
48206;DHT22;33995;48.202;16.260;2023-10-19T08:38:47;11.20;99.90
48206;DHT22;33995;48.202;16.260;2023-10-19T08:41:18;11.30;99.90
48206;DHT22;33995;48.202;16.260;2023-10-19T08:43:46;11.30;99.90
48206;DHT22;33995;48.202;16.260;2023-10-19T08:46:13;11.40;99.90
48206;DHT22;33995;48.202;16.260;2023-10-19T08:48:41;11.30;99.90
48206;DHT22;33995;48.202;16.260;2023-10-19T08:51:10;11.40;99.90
48206;DHT22;33995;48.202;16.260;2023-10-19T08:53:37;11.40;99.90
48206;DHT22;33995;48.202;16.260;2023-10-19T08:56:08;11.50;99.90
48206;DHT22;33995;48.202;16.260;2023-10-19T08:58:35;11.40;99.90
48206;DHT22;33995;48.202;16.260;2023-10-19T09:01:02;11.40;99.90
48206;DHT22;33995;48.202;16.260;2023-10-19T09:03:40;11.50;99.90
48206;DHT22;33995;48.202;16.260;2023-10-19T09:06:08;11.50;99.90
48206;DHT22;33995;48.202;16.260;2023-10-19T09:08:35;11.50;99.90
48206;DHT22;33995;48.202;16.260;2023-10-19T09:11:11;11.50;99.90
48206;DHT22;33995;48.202;16.260;2023-10-19T09:13:51;11.50;99.90
48206;DHT22;33995;48.202;16.260;2023-10-19T09:16:22;11.40;99.90
48206;DHT22;33995;48.202;16.260;2023-10-19T09:18:52;11.50;99.90
48206;DHT22;33995;48.202;16.260;2023-10-19T09:21:20;11.60;99.90
48206;DHT22;33995;48.202;16.260;2023-10-19T09:23:54;11.60;99.90
48206;DHT22;33995;48.202;16.260;2023-10-19T09:26:24;11.60;99.90
48206;DHT22;33995;48.202;16.260;2023-10-19T09:28:55;11.60;99.90
48206;DHT22;33995;48.202;16.260;2023-10-19T09:31:23;11.70;99.90
48206;DHT22;33995;48.202;16.260;2023-10-19T09:33:52;11.70;99.90
48206;DHT22;33995;48.202;16.260;2023-10-19T09:36:25;11.70;99.90
48206;DHT22;33995;48.202;16.260;2023-10-19T09:38:57;11.70;99.90
48206;DHT22;33995;48.202;16.260;2023-10-19T09:41:25;11.70;99.90
48206;DHT22;33995;48.202;16.260;2023-10-19T09:44:01;11.70;99.90
48206;DHT22;33995;48.202;16.260;2023-10-19T09:46:35;11.80;99.90
48206;DHT22;33995;48.202;16.260;2023-10-19T09:49:06;11.90;99.90
48206;DHT22;33995;48.202;16.260;2023-10-19T09:51:34;12.00;99.90
48206;DHT22;33995;48.202;16.260;2023-10-19T09:56:59;12.10;99.90
48206;DHT22;33995;48.202;16.260;2023-10-19T09:59:38;12.10;99.90
48206;DHT22;33995;48.202;16.260;2023-10-19T10:02:08;12.20;99.90
48206;DHT22;33995;48.202;16.260;2023-10-19T10:04:41;12.30;99.90
48206;DHT22;33995;48.202;16.260;2023-10-19T10:07:10;12.40;99.90
48206;DHT22;33995;48.202;16.260;2023-10-19T10:09:39;12.40;99.90
48206;DHT22;33995;48.202;16.260;2023-10-19T10:15:04;12.30;99.90
48206;DHT22;33995;48.202;16.260;2023-10-19T10:17:39;12.40;99.90
48206;DHT22;33995;48.202;16.260;2023-10-19T10:22:45;12.50;99.90
48206;DHT22;33995;48.202;16.260;2023-10-19T10:25:34;12.50;99.90
48206;DHT22;33995;48.202;16.260;2023-10-19T10:28:03;12.70;99.90
48206;DHT22;33995;48.202;16.260;2023-10-19T10:30:34;12.80;99.90
48206;DHT22;33995;48.202;16.260;2023-10-19T10:33:01;12.80;99.90
48206;DHT22;33995;48.202;16.260;2023-10-19T10:38:07;12.90;99.90
48206;DHT22;33995;48.202;16.260;2023-10-19T10:40:46;12.90;99.90
48206;DHT22;33995;48.202;16.260;2023-10-19T10:43:15;13.00;99.90
48206;DHT22;33995;48.202;16.260;2023-10-19T10:45:45;12.90;99.90
48206;DHT22;33995;48.202;16.260;2023-10-19T10:48:16;12.90;99.90
48206;DHT22;33995;48.202;16.260;2023-10-19T10:50:44;12.90;99.90
48206;DHT22;33995;48.202;16.260;2023-10-19T10:53:16;13.00;99.90
48206;DHT22;33995;48.202;16.260;2023-10-19T10:55:48;13.10;99.90
48206;DHT22;33995;48.202;16.260;2023-10-19T10:58:16;13.20;99.90
48206;DHT22;33995;48.202;16.260;2023-10-19T11:00:47;13.20;99.90
48206;DHT22;33995;48.202;16.260;2023-10-19T11:03:18;13.30;99.90
48206;DHT22;33995;48.202;16.260;2023-10-19T11:05:46;13.30;99.90
48206;DHT22;33995;48.202;16.260;2023-10-19T11:08:15;13.40;99.90
48206;DHT22;33995;48.202;16.260;2023-10-19T11:10:47;13.60;99.90
48206;DHT22;33995;48.202;16.260;2023-10-19T11:13:23;13.80;99.90
48206;DHT22;33995;48.202;16.260;2023-10-19T11:15:52;13.90;99.90
48206;DHT22;33995;48.202;16.260;2023-10-19T11:18:41;14.10;99.90
48206;DHT22;33995;48.202;16.260;2023-10-19T11:21:16;14.20;99.90
48206;DHT22;33995;48.202;16.260;2023-10-19T11:23:47;14.40;99.90
48206;DHT22;33995;48.202;16.260;2023-10-19T11:26:20;14.40;99.90
48206;DHT22;33995;48.202;16.260;2023-10-19T11:28:57;14.40;99.90
48206;DHT22;33995;48.202;16.260;2023-10-19T11:31:25;14.50;99.90
48206;DHT22;33995;48.202;16.260;2023-10-19T11:33:54;14.50;99.90
48206;DHT22;33995;48.202;16.260;2023-10-19T11:36:25;14.90;99.90
48206;DHT22;33995;48.202;16.260;2023-10-19T11:38:53;15.20;99.90
48206;DHT22;33995;48.202;16.260;2023-10-19T11:41:21;15.20;99.90
48206;DHT22;33995;48.202;16.260;2023-10-19T11:43:49;15.30;99.90
48206;DHT22;33995;48.202;16.260;2023-10-19T11:46:17;15.60;99.90
48206;DHT22;33995;48.202;16.260;2023-10-19T11:48:54;15.80;99.90
48206;DHT22;33995;48.202;16.260;2023-10-19T11:51:21;16.20;99.90
48206;DHT22;33995;48.202;16.260;2023-10-19T11:53:48;15.90;99.90
48206;DHT22;33995;48.202;16.260;2023-10-19T11:56:15;15.90;99.90
48206;DHT22;33995;48.202;16.260;2023-10-19T11:58:43;15.90;99.90
48206;DHT22;33995;48.202;16.260;2023-10-19T12:01:14;15.40;99.90
48206;DHT22;33995;48.202;16.260;2023-10-19T12:03:45;15.10;99.90
48206;DHT22;33995;48.202;16.260;2023-10-19T12:06:19;15.20;99.90
48206;DHT22;33995;48.202;16.260;2023-10-19T12:08:47;15.30;99.90
48206;DHT22;33995;48.202;16.260;2023-10-19T12:11:14;15.40;99.90
48206;DHT22;33995;48.202;16.260;2023-10-19T12:13:46;15.40;99.90
48206;DHT22;33995;48.202;16.260;2023-10-19T12:16:15;15.40;99.90
48206;DHT22;33995;48.202;16.260;2023-10-19T12:18:47;15.20;99.90
48206;DHT22;33995;48.202;16.260;2023-10-19T12:21:15;15.10;99.90
48206;DHT22;33995;48.202;16.260;2023-10-19T12:23:46;15.00;99.90
48206;DHT22;33995;48.202;16.260;2023-10-19T12:26:19;15.00;99.90
48206;DHT22;33995;48.202;16.260;2023-10-19T12:28:46;15.00;99.90
48206;DHT22;33995;48.202;16.260;2023-10-19T12:31:16;15.00;99.90
48206;DHT22;33995;48.202;16.260;2023-10-19T12:33:46;15.10;99.90
48206;DHT22;33995;48.202;16.260;2023-10-19T12:36:13;15.00;99.90
48206;DHT22;33995;48.202;16.260;2023-10-19T12:38:54;15.00;99.90
48206;DHT22;33995;48.202;16.260;2023-10-19T12:41:22;15.10;99.90
48206;DHT22;33995;48.202;16.260;2023-10-19T12:43:50;15.00;99.90
48206;DHT22;33995;48.202;16.260;2023-10-19T12:46:36;15.10;99.90
48206;DHT22;33995;48.202;16.260;2023-10-19T12:49:04;15.10;99.90
48206;DHT22;33995;48.202;16.260;2023-10-19T12:51:35;15.10;99.90
48206;DHT22;33995;48.202;16.260;2023-10-19T12:54:02;15.10;99.90
48206;DHT22;33995;48.202;16.260;2023-10-19T12:56:30;15.10;99.90
48206;DHT22;33995;48.202;16.260;2023-10-19T12:59:00;15.00;99.90
48206;DHT22;33995;48.202;16.260;2023-10-19T13:01:32;15.20;99.90
48206;DHT22;33995;48.202;16.260;2023-10-19T13:04:04;15.30;99.90
48206;DHT22;33995;48.202;16.260;2023-10-19T13:06:45;15.50;99.90
48206;DHT22;33995;48.202;16.260;2023-10-19T13:09:15;15.50;99.90
48206;DHT22;33995;48.202;16.260;2023-10-19T13:11:51;15.80;99.90
48206;DHT22;33995;48.202;16.260;2023-10-19T13:14:19;15.90;99.90
48206;DHT22;33995;48.202;16.260;2023-10-19T13:16:47;15.90;99.90
48206;DHT22;33995;48.202;16.260;2023-10-19T13:19:18;15.90;99.90
48206;DHT22;33995;48.202;16.260;2023-10-19T13:21:48;16.00;99.90
48206;DHT22;33995;48.202;16.260;2023-10-19T13:24:17;16.00;99.90
48206;DHT22;33995;48.202;16.260;2023-10-19T13:26:44;16.10;99.90
48206;DHT22;33995;48.202;16.260;2023-10-19T13:29:14;16.10;99.90
48206;DHT22;33995;48.202;16.260;2023-10-19T13:31:44;16.10;99.90
48206;DHT22;33995;48.202;16.260;2023-10-19T13:34:16;16.10;99.90
48206;DHT22;33995;48.202;16.260;2023-10-19T13:36:43;16.10;99.90
48206;DHT22;33995;48.202;16.260;2023-10-19T13:39:13;16.10;99.90
48206;DHT22;33995;48.202;16.260;2023-10-19T13:41:44;16.10;99.90
48206;DHT22;33995;48.202;16.260;2023-10-19T13:44:11;16.00;99.90
48206;DHT22;33995;48.202;16.260;2023-10-19T13:46:38;15.90;99.90
48206;DHT22;33995;48.202;16.260;2023-10-19T13:49:06;16.00;99.90
48206;DHT22;33995;48.202;16.260;2023-10-19T13:51:33;16.00;99.90
48206;DHT22;33995;48.202;16.260;2023-10-19T13:54:03;16.00;99.90
48206;DHT22;33995;48.202;16.260;2023-10-19T13:56:32;16.00;99.90
48206;DHT22;33995;48.202;16.260;2023-10-19T13:59:00;15.90;99.90
48206;DHT22;33995;48.202;16.260;2023-10-19T14:01:31;15.80;99.90
48206;DHT22;33995;48.202;16.260;2023-10-19T14:03:58;15.60;99.90
48206;DHT22;33995;48.202;16.260;2023-10-19T14:06:25;15.60;99.90
48206;DHT22;33995;48.202;16.260;2023-10-19T14:08:55;15.50;99.90
48206;DHT22;33995;48.202;16.260;2023-10-19T14:11:22;15.50;99.90
48206;DHT22;33995;48.202;16.260;2023-10-19T14:13:50;15.50;99.90
48206;DHT22;33995;48.202;16.260;2023-10-19T14:16:19;15.50;99.90
48206;DHT22;33995;48.202;16.260;2023-10-19T14:18:47;15.60;99.90
48206;DHT22;33995;48.202;16.260;2023-10-19T14:21:16;15.70;99.90
48206;DHT22;33995;48.202;16.260;2023-10-19T14:23:43;15.80;99.90
48206;DHT22;33995;48.202;16.260;2023-10-19T14:26:12;15.80;99.90
48206;DHT22;33995;48.202;16.260;2023-10-19T14:28:41;15.80;99.90
48206;DHT22;33995;48.202;16.260;2023-10-19T14:31:09;15.90;99.90
48206;DHT22;33995;48.202;16.260;2023-10-19T14:33:38;15.90;99.90
48206;DHT22;33995;48.202;16.260;2023-10-19T14:36:06;15.90;99.90
48206;DHT22;33995;48.202;16.260;2023-10-19T14:38:33;15.90;99.90
48206;DHT22;33995;48.202;16.260;2023-10-19T14:41:05;15.90;99.90
48206;DHT22;33995;48.202;16.260;2023-10-19T14:43:32;15.90;99.90
48206;DHT22;33995;48.202;16.260;2023-10-19T14:45:59;16.10;99.90
48206;DHT22;33995;48.202;16.260;2023-10-19T14:48:29;16.60;99.90
48206;DHT22;33995;48.202;16.260;2023-10-19T14:50:57;17.50;99.90
48206;DHT22;33995;48.202;16.260;2023-10-19T14:53:24;18.10;99.90
48206;DHT22;33995;48.202;16.260;2023-10-19T14:55:54;17.40;99.90
48206;DHT22;33995;48.202;16.260;2023-10-19T14:58:24;17.10;99.90
48206;DHT22;33995;48.202;16.260;2023-10-19T15:00:56;16.70;99.90
48206;DHT22;33995;48.202;16.260;2023-10-19T15:03:23;16.40;99.90
48206;DHT22;33995;48.202;16.260;2023-10-19T15:05:52;16.10;99.90
48206;DHT22;33995;48.202;16.260;2023-10-19T15:08:20;15.90;99.90
48206;DHT22;33995;48.202;16.260;2023-10-19T15:10:50;15.60;99.90
48206;DHT22;33995;48.202;16.260;2023-10-19T15:13:18;15.50;99.90
48206;DHT22;33995;48.202;16.260;2023-10-19T15:15:45;15.40;99.90
48206;DHT22;33995;48.202;16.260;2023-10-19T15:18:12;15.20;99.90
48206;DHT22;33995;48.202;16.260;2023-10-19T15:20:41;15.20;99.90
48206;DHT22;33995;48.202;16.260;2023-10-19T15:23:08;15.00;99.90
48206;DHT22;33995;48.202;16.260;2023-10-19T15:25:37;14.90;99.90
48206;DHT22;33995;48.202;16.260;2023-10-19T15:28:06;14.80;99.90
48206;DHT22;33995;48.202;16.260;2023-10-19T15:30:38;14.60;99.90
48206;DHT22;33995;48.202;16.260;2023-10-19T15:33:05;14.60;99.90
48206;DHT22;33995;48.202;16.260;2023-10-19T15:35:32;14.50;99.90
48206;DHT22;33995;48.202;16.260;2023-10-19T15:38:03;14.50;99.90
48206;DHT22;33995;48.202;16.260;2023-10-19T15:40:34;14.40;99.90
48206;DHT22;33995;48.202;16.260;2023-10-19T15:43:01;14.30;99.90
48206;DHT22;33995;48.202;16.260;2023-10-19T15:45:31;14.20;99.90
48206;DHT22;33995;48.202;16.260;2023-10-19T15:48:02;14.10;99.90
48206;DHT22;33995;48.202;16.260;2023-10-19T15:50:29;14.10;99.90
48206;DHT22;33995;48.202;16.260;2023-10-19T15:52:56;14.00;99.90
48206;DHT22;33995;48.202;16.260;2023-10-19T15:55:23;13.90;99.90
48206;DHT22;33995;48.202;16.260;2023-10-19T15:57:50;13.90;99.90
48206;DHT22;33995;48.202;16.260;2023-10-19T16:00:18;13.80;99.90
48206;DHT22;33995;48.202;16.260;2023-10-19T16:02:48;13.80;99.90